Time,TemperatureF,DewpointF,PressureIn,WindDirection,WindDirectionDegrees,WindSpeedMPH,WindSpeedGustMPH,Humidity,HourlyPrecipIn,Conditions,Clouds,dailyrainin,SoftwareType,DateUTC
2014-01-04 00:01:00,22.6,15.6,30.19,SW,225,1.7,-999.0,74,-99.99,,,0.00,Acu-Link.com,2014-01-04 05:01:00,
2014-01-04 00:16:00,22.6,15.3,30.19,SW,225,0.0,-999.0,73,-99.99,,,0.00,Acu-Link.com,2014-01-04 05:16:00,
2014-01-04 00:32:00,22.6,15.0,30.18,SE,135,2.7,-999.0,72,-99.99,,,0.00,Acu-Link.com,2014-01-04 05:32:00,
2014-01-04 00:47:00,23.0,15.0,30.19,WNW,292,2.2,-999.0,71,-99.99,,,0.00,Acu-Link.com,2014-01-04 05:47:00,
2014-01-04 01:02:00,23.2,14.6,30.19,SW,225,3.2,-999.0,69,-99.99,,,0.00,Acu-Link.com,2014-01-04 06:02:00,
2014-01-04 01:18:00,24.4,13.6,30.19,WNW,292,0.0,-999.0,63,-99.99,,,0.00,Acu-Link.com,2014-01-04 06:18:00,
2014-01-04 01:33:00,24.8,13.3,30.20,ESE,112,1.1,-999.0,61,-99.99,,,0.00,Acu-Link.com,2014-01-04 06:33:00,
2014-01-04 01:48:00,25.0,13.1,30.20,ESE,112,2.2,-999.0,60,-99.99,,,0.00,Acu-Link.com,2014-01-04 06:48:00,
2014-01-04 02:03:00,24.4,12.5,30.20,SSE,157,2.7,-999.0,60,-99.99,,,0.00,Acu-Link.com,2014-01-04 07:03:00,
2014-01-04 02:18:00,24.3,12.1,30.20,East,90,3.7,-999.0,59,-99.99,,,0.00,Acu-Link.com,2014-01-04 07:18:00,
2014-01-04 02:33:00,24.3,11.3,30.21,North,0,2.7,-999.0,57,-99.99,,,0.00,Acu-Link.com,2014-01-04 07:33:00,
2014-01-04 02:48:00,24.3,10.5,30.21,ENE,67,2.2,-999.0,55,-99.99,,,0.00,Acu-Link.com,2014-01-04 07:48:00,
2014-01-04 03:03:00,23.7,11.5,30.20,West,270,3.7,-999.0,59,-99.99,,,0.00,Acu-Link.com,2014-01-04 08:03:00,
2014-01-04 03:19:00,23.9,10.1,30.20,ESE,112,3.2,-999.0,55,-99.99,,,0.00,Acu-Link.com,2014-01-04 08:19:00,
2014-01-04 03:34:00,23.9,9.7,30.20,WSW,247,2.7,-999.0,54,-99.99,,,0.00,Acu-Link.com,2014-01-04 08:34:00,
2014-01-04 03:49:00,23.9,9.7,30.20,East,90,2.7,-999.0,54,-99.99,,,0.00,Acu-Link.com,2014-01-04 08:49:00,
2014-01-04 04:04:00,24.1,9.1,30.20,West,270,3.7,-999.0,52,-99.99,,,0.00,Acu-Link.com,2014-01-04 09:04:00,
2014-01-04 04:19:00,24.4,8.9,30.20,East,90,3.7,-999.0,51,-99.99,,,0.00,Acu-Link.com,2014-01-04 09:19:00,
2014-01-04 04:34:00,24.3,7.9,30.20,ENE,67,4.7,-999.0,49,-99.99,,,0.00,Acu-Link.com,2014-01-04 09:34:00,
2014-01-04 04:50:00,24.3,8.4,30.21,WSW,247,3.7,-999.0,50,-99.99,,,0.00,Acu-Link.com,2014-01-04 09:50:00,
2014-01-04 05:05:00,24.1,8.2,30.21,SSW,202,2.2,-999.0,50,-99.99,,,0.00,Acu-Link.com,2014-01-04 10:05:00,
2014-01-04 05:20:00,23.9,8.4,30.21,South,180,2.7,-999.0,51,-99.99,,,0.00,Acu-Link.com,2014-01-04 10:20:00,
2014-01-04 05:36:00,23.7,8.7,30.21,SSE,157,3.7,-999.0,52,-99.99,,,0.00,Acu-Link.com,2014-01-04 10:36:00,
2014-01-04 05:52:00,23.4,9.2,30.21,South,180,2.2,-999.0,54,-99.99,,,0.00,Acu-Link.com,2014-01-04 10:52:00,
2014-01-04 06:07:00,23.2,8.6,30.22,SE,135,1.7,-999.0,53,-99.99,,,0.00,Acu-Link.com,2014-01-04 11:07:00,
2014-01-04 06:22:00,23.2,8.6,30.22,ESE,112,2.7,-999.0,53,-99.99,,,0.00,Acu-Link.com,2014-01-04 11:22:00,
2014-01-04 06:37:00,22.6,10.5,30.22,SSE,157,2.7,-999.0,59,-99.99,,,0.00,Acu-Link.com,2014-01-04 11:37:00,
2014-01-04 06:52:00,22.5,9.6,30.22,West,270,2.2,-999.0,57,-99.99,,,0.00,Acu-Link.com,2014-01-04 11:52:00,
2014-01-04 07:08:00,22.3,9.4,30.22,SSE,157,2.7,-999.0,57,-99.99,,,0.00,Acu-Link.com,2014-01-04 12:08:00,
2014-01-04 07:23:00,22.1,8.8,30.21,East,90,1.1,-999.0,56,-99.99,,,0.00,Acu-Link.com,2014-01-04 12:23:00,
2014-01-04 07:38:00,21.9,9.4,30.21,WSW,247,1.7,-999.0,58,-99.99,,,0.00,Acu-Link.com,2014-01-04 12:38:00,
2014-01-04 07:53:00,21.4,9.7,30.20,NE,45,0.0,-999.0,60,-99.99,,,0.00,Acu-Link.com,2014-01-04 12:53:00,
2014-01-04 08:09:00,21.0,10.4,30.20,NE,45,0.0,-999.0,63,-99.99,,,0.00,Acu-Link.com,2014-01-04 13:09:00,
2014-01-04 08:24:00,20.8,9.9,30.20,West,270,0.0,-999.0,62,-99.99,,,0.00,Acu-Link.com,2014-01-04 13:24:00,
2014-01-04 08:39:00,21.2,11.6,30.21,SSE,157,0.0,-999.0,66,-99.99,,,0.00,Acu-Link.com,2014-01-04 13:39:00,
2014-01-04 08:54:00,23.2,11.8,30.21,SE,135,2.2,-999.0,61,-99.99,,,0.00,Acu-Link.com,2014-01-04 13:54:00,
2014-01-04 09:09:00,24.3,12.1,30.21,SW,225,2.2,-999.0,59,-99.99,,,0.00,Acu-Link.com,2014-01-04 14:09:00,
2014-01-04 09:25:00,25.0,11.9,30.22,SW,225,1.1,-999.0,57,-99.99,,,0.00,Acu-Link.com,2014-01-04 14:25:00,
2014-01-04 09:40:00,25.2,11.7,30.23,ENE,67,0.0,-999.0,56,-99.99,,,0.00,Acu-Link.com,2014-01-04 14:40:00,
2014-01-04 09:55:00,27.5,10.9,30.24,SSW,202,0.0,-999.0,49,-99.99,,,0.00,Acu-Link.com,2014-01-04 14:55:00,
2014-01-04 10:10:00,30.2,7.7,30.23,SW,225,1.7,-999.0,38,-99.99,,,0.00,Acu-Link.com,2014-01-04 15:10:00,
2014-01-04 10:26:00,31.1,10.2,30.24,East,90,2.2,-999.0,41,-99.99,,,0.00,Acu-Link.com,2014-01-04 15:26:00,
2014-01-04 10:41:00,31.6,11.2,30.23,ESE,112,2.7,-999.0,42,-99.99,,,0.00,Acu-Link.com,2014-01-04 15:41:00,
2014-01-04 10:56:00,32.4,14.4,30.22,SE,135,2.7,-999.0,47,-99.99,,,0.00,Acu-Link.com,2014-01-04 15:56:00,
2014-01-04 11:11:00,33.1,17.0,30.21,ESE,112,3.7,-999.0,51,-99.99,,,0.00,Acu-Link.com,2014-01-04 16:11:00,
2014-01-04 11:27:00,33.8,18.5,30.21,SW,225,4.2,-999.0,53,-99.99,,,0.00,Acu-Link.com,2014-01-04 16:27:00,
2014-01-04 11:42:00,34.7,18.4,30.21,SE,135,3.2,-999.0,51,-99.99,,,0.00,Acu-Link.com,2014-01-04 16:42:00,
2014-01-04 11:57:00,36.0,21.8,30.19,SSW,202,2.2,-999.0,56,-99.99,,,0.00,Acu-Link.com,2014-01-04 16:57:00,
2014-01-04 12:13:00,36.7,25.3,30.18,SSE,157,0.0,-999.0,63,-99.99,,,0.00,Acu-Link.com,2014-01-04 17:13:00,
2014-01-04 12:28:00,36.3,24.9,30.17,SE,135,2.2,-999.0,63,-99.99,,,0.00,Acu-Link.com,2014-01-04 17:28:00,
2014-01-04 12:43:00,36.7,25.3,30.16,NNW,337,3.7,-999.0,63,-99.99,,,0.00,Acu-Link.com,2014-01-04 17:43:00,
2014-01-04 12:58:00,36.7,25.7,30.16,ENE,67,1.7,-999.0,64,-99.99,,,0.00,Acu-Link.com,2014-01-04 17:58:00,
2014-01-04 13:14:00,36.7,27.2,30.16,SSE,157,4.2,-999.0,68,-99.99,,,0.00,Acu-Link.com,2014-01-04 18:14:00,
2014-01-04 13:29:00,37.4,27.8,30.15,West,270,1.7,-999.0,68,-99.99,,,0.00,Acu-Link.com,2014-01-04 18:29:00,
2014-01-04 13:44:00,38.1,28.5,30.14,ENE,67,1.7,-999.0,68,-99.99,,,0.00,Acu-Link.com,2014-01-04 18:44:00,
2014-01-04 13:59:00,38.7,29.1,30.14,NNE,22,1.7,-999.0,68,-99.99,,,0.00,Acu-Link.com,2014-01-04 18:59:00,
2014-01-04 14:15:00,39.2,29.5,30.13,West,270,0.0,-999.0,68,-99.99,,,0.00,Acu-Link.com,2014-01-04 19:15:00,
2014-01-04 14:30:00,39.9,29.5,30.12,ENE,67,1.1,-999.0,66,-99.99,,,0.00,Acu-Link.com,2014-01-04 19:30:00,
2014-01-04 14:45:00,40.3,31.0,30.12,SSE,157,0.0,-999.0,69,-99.99,,,0.00,Acu-Link.com,2014-01-04 19:45:00,
2014-01-04 15:01:00,40.5,29.7,30.11,SSE,157,0.0,-999.0,65,-99.99,,,0.00,Acu-Link.com,2014-01-04 20:01:00,
2014-01-04 15:16:00,40.1,29.3,30.11,NNW,337,2.2,-999.0,65,-99.99,,,0.00,Acu-Link.com,2014-01-04 20:16:00,
2014-01-04 15:32:00,40.3,30.2,30.11,ESE,112,0.0,-999.0,67,-99.99,,,0.00,Acu-Link.com,2014-01-04 20:32:00,
2014-01-04 15:47:00,39.7,29.7,30.11,SSE,157,1.7,-999.0,67,-99.99,,,0.00,Acu-Link.com,2014-01-04 20:47:00,
2014-01-04 16:02:00,39.0,31.8,30.12,East,90,1.1,-999.0,75,-99.99,,,0.00,Acu-Link.com,2014-01-04 21:02:00,
2014-01-04 16:17:00,38.5,30.3,30.12,ESE,112,1.1,-999.0,72,-99.99,,,0.00,Acu-Link.com,2014-01-04 21:17:00,
2014-01-04 16:33:00,38.3,32.4,30.13,South,180,0.0,-999.0,79,-99.99,,,0.00,Acu-Link.com,2014-01-04 21:33:00,
2014-01-04 16:48:00,37.9,30.7,30.11,SSE,157,2.7,-999.0,75,-99.99,,,0.00,Acu-Link.com,2014-01-04 21:48:00,
2014-01-04 17:03:00,37.4,29.6,30.12,SE,135,0.0,-999.0,73,-99.99,,,0.00,Acu-Link.com,2014-01-04 22:03:00,
2014-01-04 17:19:00,37.2,30.3,30.11,SSE,157,2.2,-999.0,76,-99.99,,,0.00,Acu-Link.com,2014-01-04 22:19:00,
2014-01-04 17:34:00,36.9,30.7,30.10,South,180,2.2,-999.0,78,-99.99,,,0.00,Acu-Link.com,2014-01-04 22:34:00,
2014-01-04 17:49:00,36.9,31.3,30.11,West,270,0.0,-999.0,80,-99.99,,,0.00,Acu-Link.com,2014-01-04 22:49:00,
2014-01-04 18:05:00,36.5,31.8,30.11,NE,45,0.0,-999.0,83,-99.99,,,0.00,Acu-Link.com,2014-01-04 23:05:00,
2014-01-04 18:20:00,36.3,31.9,30.11,NNW,337,0.0,-999.0,84,-99.99,,,0.00,Acu-Link.com,2014-01-04 23:20:00,
2014-01-04 18:35:00,36.7,32.9,30.10,SSW,202,2.7,-999.0,86,-99.99,,,0.00,Acu-Link.com,2014-01-04 23:35:00,
2014-01-04 18:50:00,37.8,34.6,30.10,NE,45,1.7,-999.0,88,-99.99,,,0.00,Acu-Link.com,2014-01-04 23:50:00,
2014-01-04 19:05:00,37.8,35.1,30.10,ESE,112,2.2,-999.0,90,-99.99,,,0.00,Acu-Link.com,2014-01-05 00:05:00,
2014-01-04 19:21:00,37.8,34.9,30.09,ESE,112,2.7,-999.0,89,-99.99,,,0.00,Acu-Link.com,2014-01-05 00:21:00,
2014-01-04 19:36:00,37.8,35.1,30.09,South,180,2.2,-999.0,90,-99.99,,,0.00,Acu-Link.com,2014-01-05 00:36:00,
2014-01-04 19:51:00,37.8,35.1,30.09,ESE,112,3.2,-999.0,90,-99.99,,,0.00,Acu-Link.com,2014-01-05 00:51:00,
2014-01-04 20:06:00,37.9,35.2,30.09,SE,135,3.7,-999.0,90,-99.99,,,0.00,Acu-Link.com,2014-01-05 01:06:00,
2014-01-04 20:21:00,38.1,35.4,30.10,WNW,292,5.3,-999.0,90,-99.99,,,0.00,Acu-Link.com,2014-01-05 01:21:00,
2014-01-04 20:37:00,37.4,35.0,30.10,ESE,112,3.2,-999.0,91,-99.99,,,0.00,Acu-Link.com,2014-01-05 01:37:00,
2014-01-04 20:52:00,37.6,35.5,30.10,SE,135,4.2,-999.0,92,-99.99,,,0.00,Acu-Link.com,2014-01-05 01:52:00,
2014-01-04 21:07:00,37.8,36.0,30.10,South,180,2.7,-999.0,93,-99.99,,,0.00,Acu-Link.com,2014-01-05 02:07:00,
2014-01-04 21:22:00,37.6,36.0,30.09,East,90,2.7,-999.0,94,-99.99,,,0.00,Acu-Link.com,2014-01-05 02:22:00,
2014-01-04 21:37:00,37.8,36.5,30.09,East,90,4.2,-999.0,95,-99.99,,,0.00,Acu-Link.com,2014-01-05 02:37:00,
2014-01-04 21:53:00,37.8,36.8,30.08,NE,45,6.3,-999.0,96,-99.99,,,0.00,Acu-Link.com,2014-01-05 02:53:00,
2014-01-04 22:08:00,37.9,36.9,30.07,West,270,2.7,-999.0,96,-99.99,,,0.00,Acu-Link.com,2014-01-05 03:08:00,
2014-01-04 22:23:00,38.3,37.5,30.07,ESE,112,3.7,-999.0,97,-99.99,,,0.00,Acu-Link.com,2014-01-05 03:23:00,
2014-01-04 22:38:00,38.8,38.0,30.07,East,90,3.7,-999.0,97,-99.99,,,0.00,Acu-Link.com,2014-01-05 03:38:00,
2014-01-04 22:54:00,39.4,38.6,30.06,SSW,202,3.7,-999.0,97,-99.99,,,0.00,Acu-Link.com,2014-01-05 03:54:00,
2014-01-04 23:09:00,39.4,38.9,30.05,ESE,112,1.7,-999.0,98,-99.99,,,0.00,Acu-Link.com,2014-01-05 04:09:00,
2014-01-04 23:24:00,39.7,39.2,30.04,East,90,3.2,-999.0,98,-99.99,,,0.00,Acu-Link.com,2014-01-05 04:24:00,
2014-01-04 23:40:00,40.3,39.8,30.04,NE,45,2.2,-999.0,98,-99.99,,,0.00,Acu-Link.com,2014-01-05 04:40:00,
2014-01-04 23:55:00,40.6,40.3,30.04,ESE,112,3.2,-999.0,99,-99.99,,,0.00,Acu-Link.com,2014-01-05 04:55:00,